createdAt,value
2018-08-09T00:02:40.548Z,21.90
2018-08-09T00:05:43.634Z,22.13
2018-08-09T00:08:46.776Z,21.96
2018-08-09T00:11:49.922Z,21.97
2018-08-09T00:14:53.189Z,21.95
2018-08-09T00:17:56.277Z,21.66
2018-08-09T00:20:59.642Z,21.64
2018-08-09T00:24:02.922Z,21.60
2018-08-09T00:27:06.111Z,21.69
2018-08-09T00:30:12.978Z,21.73
2018-08-09T00:33:30.834Z,22.03
2018-08-09T00:36:35.830Z,21.80
2018-08-09T00:39:41.094Z,21.89
2018-08-09T00:42:44.342Z,21.73
2018-08-09T00:45:47.449Z,21.79
2018-08-09T00:48:50.526Z,21.80
2018-08-09T00:51:53.606Z,21.64
2018-08-09T00:54:56.662Z,21.72
2018-08-09T00:58:00.435Z,21.76
2018-08-09T01:01:04.470Z,21.70
2018-08-09T01:04:07.534Z,21.72
2018-08-09T01:07:10.554Z,21.63
2018-08-09T01:10:13.702Z,21.70
2018-08-09T01:13:21.439Z,21.95
2018-08-09T01:16:25.530Z,21.85
2018-08-09T01:19:28.733Z,21.92
2018-08-09T01:22:32.012Z,21.99
2018-08-09T01:25:35.410Z,22.04
2018-08-09T01:28:38.433Z,22.04
2018-08-09T01:31:41.998Z,22.05
2018-08-09T01:34:50.890Z,22.17
2018-08-09T01:38:03.462Z,21.89
2018-08-09T01:41:07.737Z,21.88
2018-08-09T01:44:10.778Z,22.09
2018-08-09T01:47:13.821Z,21.27
2018-08-09T01:50:17.086Z,21.53
2018-08-09T01:53:20.350Z,21.65
2018-08-09T01:56:23.667Z,21.65
2018-08-09T01:59:26.748Z,21.75
2018-08-09T02:02:29.826Z,21.69
2018-08-09T02:05:32.948Z,21.61
2018-08-09T02:08:36.193Z,21.41
2018-08-09T02:11:39.243Z,21.47
2018-08-09T02:14:42.330Z,21.59
2018-08-09T02:17:45.418Z,21.58
2018-08-09T02:20:48.596Z,21.42
2018-08-09T02:23:52.045Z,21.65
2018-08-09T02:26:55.180Z,21.53
2018-08-09T02:29:58.427Z,21.79
2018-08-09T02:33:01.573Z,21.56
2018-08-09T02:36:04.733Z,21.71
2018-08-09T02:39:09.610Z,21.74
2018-08-09T02:42:12.695Z,21.75
2018-08-09T02:45:15.912Z,21.82
2018-08-09T02:48:19.015Z,21.61
2018-08-09T02:51:22.177Z,21.73
2018-08-09T02:54:25.282Z,21.37
2018-08-09T02:57:28.342Z,21.29
2018-08-09T03:00:31.396Z,21.62
2018-08-09T03:03:34.505Z,21.77
2018-08-09T03:06:37.531Z,21.67
2018-08-09T03:09:40.601Z,21.71
2018-08-09T03:12:43.693Z,21.64
2018-08-09T03:15:46.756Z,21.63
2018-08-09T03:18:49.883Z,21.58
2018-08-09T03:21:52.924Z,21.48
2018-08-09T03:24:55.943Z,21.53
2018-08-09T03:27:58.983Z,21.50
2018-08-09T03:31:02.040Z,21.45
2018-08-09T03:34:05.105Z,21.49
2018-08-09T03:37:08.638Z,21.01
2018-08-09T03:40:12.245Z,21.10
2018-08-09T03:43:15.801Z,21.37
2018-08-09T03:49:39.990Z,21.30
2018-08-09T03:52:44.719Z,21.11
2018-08-09T03:55:47.772Z,21.11
2018-08-09T03:58:50.839Z,20.82
2018-08-09T04:01:53.877Z,21.08
2018-08-09T04:04:57.002Z,21.06
2018-08-09T04:08:00.008Z,20.99
2018-08-09T04:11:03.122Z,21.28
2018-08-09T04:14:06.305Z,21.22
2018-08-09T04:17:13.816Z,20.87
2018-08-09T04:20:16.893Z,21.07
2018-08-09T04:23:19.974Z,21.20
2018-08-09T04:26:23.047Z,21.07
2018-08-09T04:29:26.078Z,21.07
2018-08-09T04:32:29.088Z,21.11
2018-08-09T04:35:32.237Z,21.03
2018-08-09T04:38:35.295Z,21.05
2018-08-09T04:41:38.360Z,21.10
2018-08-09T04:44:41.402Z,21.36
2018-08-09T04:47:44.576Z,21.12
2018-08-09T04:50:47.629Z,21.26
2018-08-09T04:53:50.690Z,21.05
2018-08-09T04:56:53.788Z,21.35
2018-08-09T04:59:56.962Z,21.23
2018-08-09T05:03:00.116Z,21.34
2018-08-09T05:06:03.473Z,21.35
2018-08-09T05:09:08.629Z,21.52
2018-08-09T05:12:11.698Z,21.57
2018-08-09T05:15:14.859Z,21.59
2018-08-09T05:18:17.916Z,21.59
2018-08-09T05:21:20.953Z,21.62
2018-08-09T05:24:24.008Z,21.51
2018-08-09T05:27:27.118Z,21.55
2018-08-09T05:30:30.184Z,21.49
2018-08-09T05:33:33.288Z,21.67
2018-08-09T05:36:36.376Z,21.74
2018-08-09T05:39:39.486Z,21.66
2018-08-09T05:42:42.541Z,21.77
2018-08-09T05:45:45.709Z,21.93
2018-08-09T05:48:48.842Z,21.98
2018-08-09T05:51:51.885Z,22.00
2018-08-09T05:54:54.930Z,21.96
2018-08-09T05:57:58.026Z,22.03
2018-08-09T06:01:01.100Z,22.12
2018-08-09T06:04:04.167Z,22.18
2018-08-09T06:07:07.246Z,22.18
2018-08-09T06:10:10.354Z,22.23
2018-08-09T06:13:13.489Z,22.27
2018-08-09T06:16:16.565Z,22.29
2018-08-09T06:19:19.845Z,22.15
2018-08-09T06:22:22.917Z,22.23
2018-08-09T06:25:25.942Z,22.29
2018-08-09T06:28:29.130Z,22.24
2018-08-09T06:31:32.238Z,22.31
2018-08-09T06:34:35.309Z,22.39
2018-08-09T06:37:38.445Z,22.51
2018-08-09T06:40:41.505Z,22.49
2018-08-09T06:43:44.630Z,22.61
2018-08-09T06:46:47.725Z,22.62
2018-08-09T06:49:50.786Z,22.72
2018-08-09T06:52:53.890Z,22.79
2018-08-09T06:55:56.974Z,22.83
2018-08-09T06:59:00.074Z,22.78
2018-08-09T07:02:03.201Z,22.84
2018-08-09T07:05:06.343Z,22.86
2018-08-09T07:08:09.566Z,23.01
2018-08-09T07:11:12.695Z,23.07
2018-08-09T07:14:15.760Z,23.18
2018-08-09T07:17:18.964Z,23.25
2018-08-09T07:20:22.050Z,23.23
2018-08-09T07:23:25.091Z,23.26
2018-08-09T07:26:28.415Z,23.15
2018-08-09T07:29:31.478Z,22.98
2018-08-09T07:32:34.565Z,22.77
2018-08-09T07:35:37.689Z,22.73
2018-08-09T07:38:40.757Z,22.70
2018-08-09T07:41:43.830Z,22.64
2018-08-09T07:44:46.947Z,22.52
2018-08-09T07:47:50.068Z,22.48
2018-08-09T07:50:53.338Z,22.57
2018-08-09T07:53:56.374Z,22.58
2018-08-09T07:57:00.026Z,22.75
2018-08-09T08:00:03.335Z,22.89
2018-08-09T08:03:06.458Z,22.96
2018-08-09T08:06:09.736Z,23.06
2018-08-09T08:09:12.782Z,23.09
2018-08-09T08:12:15.851Z,22.87
2018-08-09T08:15:18.981Z,23.13
2018-08-09T08:18:22.127Z,23.12
2018-08-09T08:21:25.214Z,23.00
2018-08-09T08:24:28.279Z,23.23
2018-08-09T08:27:31.410Z,23.30
2018-08-09T08:30:34.517Z,23.38
2018-08-09T08:33:37.556Z,23.51
2018-08-09T08:36:40.637Z,23.38
2018-08-09T08:39:43.730Z,23.20
2018-08-09T08:42:46.844Z,23.32
2018-08-09T08:45:50.015Z,23.30
2018-08-09T08:48:53.050Z,23.51
2018-08-09T08:51:56.121Z,23.72
2018-08-09T08:55:06.739Z,23.76
2018-08-09T08:58:09.854Z,23.81
2018-08-09T09:01:12.899Z,23.95
2018-08-09T09:04:16.000Z,24.07
2018-08-09T09:07:19.187Z,23.86
2018-08-09T09:10:22.261Z,23.76
2018-08-09T09:13:25.481Z,23.74
2018-08-09T09:16:28.529Z,23.71
2018-08-09T09:19:31.599Z,23.68
2018-08-09T09:22:34.898Z,23.81
2018-08-09T09:25:37.951Z,23.74
2018-08-09T09:28:41.131Z,23.78
2018-08-09T09:31:44.188Z,24.08
2018-08-09T09:34:47.306Z,24.34
2018-08-09T09:37:50.353Z,24.69
2018-08-09T09:40:53.466Z,24.49
2018-08-09T09:43:56.483Z,24.60
2018-08-09T09:46:59.632Z,24.85
2018-08-09T09:50:03.083Z,25.14
2018-08-09T09:53:06.171Z,25.17
2018-08-09T09:56:09.217Z,25.02
2018-08-09T09:59:12.274Z,25.38
2018-08-09T10:02:15.341Z,25.41
2018-08-09T10:05:18.378Z,25.44
2018-08-09T10:08:21.429Z,25.64
2018-08-09T10:11:24.483Z,25.77
2018-08-09T10:14:27.548Z,25.85
2018-08-09T10:17:30.606Z,25.91
2018-08-09T10:20:33.670Z,26.21
2018-08-09T10:23:36.847Z,26.08
2018-08-09T10:26:39.878Z,25.80
2018-08-09T10:29:42.858Z,25.61
2018-08-09T10:32:45.974Z,25.58
2018-08-09T10:35:49.099Z,25.84
2018-08-09T10:38:52.264Z,26.18
2018-08-09T10:41:55.472Z,26.28
2018-08-09T10:44:58.597Z,26.28
2018-08-09T10:48:01.740Z,25.91
2018-08-09T10:51:04.901Z,25.97
2018-08-09T10:54:08.239Z,26.26
2018-08-09T10:57:11.625Z,26.63
2018-08-09T11:00:15.269Z,26.73
2018-08-09T11:03:18.470Z,27.04
2018-08-09T11:06:21.924Z,27.12
2018-08-09T11:09:25.188Z,27.59
2018-08-09T11:12:28.714Z,27.51
2018-08-09T11:15:31.946Z,27.42
2018-08-09T11:18:35.832Z,27.31
2018-08-09T11:21:38.885Z,27.82
2018-08-09T11:24:41.918Z,27.88
2018-08-09T11:27:44.978Z,28.24
2018-08-09T11:30:48.033Z,28.09
2018-08-09T11:33:51.071Z,28.17
2018-08-09T11:36:54.159Z,28.01
2018-08-09T11:39:57.149Z,28.29
2018-08-09T11:43:07.026Z,27.95
2018-08-09T11:46:10.063Z,28.29
2018-08-09T11:49:13.192Z,28.29
2018-08-09T11:52:16.274Z,28.47
2018-08-09T11:55:19.322Z,28.12
2018-08-09T11:58:22.432Z,28.19
2018-08-09T12:01:25.549Z,27.97
2018-08-09T12:04:28.538Z,27.79
2018-08-09T12:07:31.585Z,28.14
2018-08-09T12:10:34.638Z,28.06
2018-08-09T12:13:37.821Z,27.75
2018-08-09T12:16:40.764Z,27.54
2018-08-09T12:19:43.874Z,27.38
2018-08-09T12:22:46.990Z,27.28
2018-08-09T12:25:50.271Z,27.18
2018-08-09T12:28:53.325Z,26.97
2018-08-09T12:31:56.426Z,27.08
2018-08-09T12:34:59.509Z,27.03
2018-08-09T12:38:02.590Z,26.82
2018-08-09T12:41:05.663Z,26.76
2018-08-09T12:44:09.154Z,26.85
2018-08-09T12:47:12.302Z,26.92
2018-08-09T12:50:15.425Z,27.31
2018-08-09T12:53:18.734Z,27.22
2018-08-09T12:56:21.860Z,27.36
2018-08-09T12:59:25.016Z,27.73
2018-08-09T13:02:28.236Z,27.92
2018-08-09T13:05:31.295Z,28.18
2018-08-09T13:08:34.681Z,28.24
2018-08-09T13:11:37.735Z,27.87
2018-08-09T13:14:40.837Z,28.00
2018-08-09T13:17:45.237Z,27.73
2018-08-09T13:20:48.366Z,27.73
2018-08-09T13:23:51.417Z,27.88
2018-08-09T13:26:54.496Z,27.78
2018-08-09T13:29:57.649Z,27.84
2018-08-09T13:33:00.827Z,27.86
2018-08-09T13:36:03.972Z,28.19
2018-08-09T13:39:10.849Z,27.84
2018-08-09T13:42:13.890Z,26.83
2018-08-09T13:45:16.988Z,25.38
2018-08-09T13:48:20.024Z,24.61
2018-08-09T13:51:23.030Z,24.61
2018-08-09T13:54:26.072Z,24.46
2018-08-09T13:57:29.092Z,24.08
2018-08-09T14:00:32.156Z,24.09
2018-08-09T14:03:35.295Z,24.01
2018-08-09T14:06:38.241Z,23.52
2018-08-09T14:09:41.236Z,23.73
2018-08-09T14:12:44.180Z,23.77
2018-08-09T14:15:47.190Z,23.57
2018-08-09T14:18:50.127Z,23.49
2018-08-09T14:21:53.138Z,23.57
2018-08-09T14:24:56.989Z,23.63
2018-08-09T14:28:00.063Z,23.78
2018-08-09T14:31:03.287Z,23.71
2018-08-09T14:34:06.582Z,23.47
2018-08-09T14:37:09.870Z,23.82
2018-08-09T14:40:13.651Z,23.86
2018-08-09T14:43:16.652Z,23.82
2018-08-09T14:46:19.784Z,23.80
2018-08-09T14:49:23.052Z,23.82
2018-08-09T14:52:26.006Z,23.51
2018-08-09T14:55:29.004Z,23.49
2018-08-09T14:58:32.024Z,23.84
2018-08-09T15:01:35.041Z,23.80
2018-08-09T15:04:37.945Z,23.80
2018-08-09T15:07:41.353Z,23.68
2018-08-09T15:10:44.371Z,23.61
2018-08-09T15:13:47.392Z,23.95
2018-08-09T15:16:50.364Z,23.94
2018-08-09T15:19:53.318Z,24.43
2018-08-09T15:22:56.384Z,24.64
2018-08-09T15:25:59.318Z,24.62
2018-08-09T15:29:02.371Z,24.80
2018-08-09T15:32:05.403Z,24.72
2018-08-09T15:35:08.360Z,24.44
2018-08-09T15:38:11.385Z,24.35
2018-08-09T15:41:14.380Z,24.14
2018-08-09T15:44:17.366Z,24.07
2018-08-09T15:47:20.420Z,24.02
2018-08-09T15:50:23.458Z,24.33
2018-08-09T15:53:26.436Z,24.38
2018-08-09T15:56:29.619Z,24.29
2018-08-09T15:59:32.723Z,24.32
2018-08-09T16:02:35.750Z,24.05
2018-08-09T16:05:38.842Z,23.99
2018-08-09T16:08:41.813Z,23.91
2018-08-09T16:11:44.947Z,23.86
2018-08-09T16:14:47.979Z,24.00
2018-08-09T16:17:52.411Z,24.02
2018-08-09T16:20:55.574Z,24.16
2018-08-09T16:23:58.611Z,23.94
2018-08-09T16:27:01.756Z,24.04
2018-08-09T16:30:15.667Z,24.05
2018-08-09T16:33:18.680Z,23.96
2018-08-09T16:36:21.630Z,24.01
2018-08-09T16:39:24.739Z,24.01
2018-08-09T16:42:27.888Z,23.91
2018-08-09T16:45:31.046Z,23.89
2018-08-09T16:48:34.156Z,23.98
2018-08-09T16:51:37.295Z,24.03
2018-08-09T16:54:40.450Z,24.04
2018-08-09T16:57:43.710Z,24.08
2018-08-09T17:00:46.919Z,24.03
2018-08-09T17:03:50.867Z,24.07
2018-08-09T17:07:02.859Z,23.95
2018-08-09T17:10:06.893Z,24.07
2018-08-09T17:13:09.995Z,24.03
2018-08-09T17:16:13.090Z,24.16
2018-08-09T17:19:16.232Z,24.26
2018-08-09T17:22:19.271Z,24.23
2018-08-09T17:25:22.514Z,24.20
2018-08-09T17:28:25.468Z,24.32
2018-08-09T17:31:28.529Z,24.30
2018-08-09T17:34:32.184Z,24.33
2018-08-09T17:37:35.393Z,24.37
2018-08-09T17:40:38.391Z,24.33
2018-08-09T17:43:41.448Z,24.43
2018-08-09T17:46:44.487Z,24.37
2018-08-09T17:49:47.471Z,24.35
2018-08-09T17:52:50.416Z,24.32
2018-08-09T17:55:53.381Z,24.26
2018-08-09T17:58:57.039Z,24.21
2018-08-09T18:02:00.067Z,24.17
2018-08-09T18:05:03.968Z,24.15
2018-08-09T18:08:07.170Z,24.16
2018-08-09T18:11:10.182Z,24.21
2018-08-09T18:14:13.099Z,24.12
2018-08-09T18:17:16.074Z,24.10
2018-08-09T18:20:20.687Z,24.06
2018-08-09T18:23:23.700Z,24.09
2018-08-09T18:26:28.178Z,24.02
2018-08-09T18:29:31.453Z,23.98
2018-08-09T18:32:35.140Z,24.14
2018-08-09T18:35:38.666Z,23.95
2018-08-09T18:38:42.181Z,23.58
2018-08-09T18:41:45.541Z,23.29
2018-08-09T18:44:48.552Z,23.14
2018-08-09T18:47:52.050Z,23.03
2018-08-09T18:50:55.861Z,23.07
2018-08-09T18:53:59.479Z,22.49
2018-08-09T18:57:31.904Z,22.52
2018-08-09T19:00:35.310Z,22.58
2018-08-09T19:03:39.808Z,22.58
2018-08-09T19:06:43.343Z,22.58
2018-08-09T19:09:46.698Z,22.78
2018-08-09T19:12:50.112Z,22.62
2018-08-09T19:15:53.275Z,22.36
2018-08-09T19:19:02.691Z,22.54
2018-08-09T19:22:08.077Z,22.31
2018-08-09T19:25:12.950Z,22.44
2018-08-09T19:28:16.196Z,22.40
2018-08-09T19:31:23.700Z,22.40
2018-08-09T19:34:30.790Z,22.39
2018-08-09T19:37:34.435Z,22.34
2018-08-09T19:40:37.882Z,22.39
2018-08-09T19:43:41.128Z,22.40
2018-08-09T19:46:44.449Z,22.09
2018-08-09T19:49:47.531Z,22.24
2018-08-09T19:52:51.117Z,22.39
2018-08-09T19:55:54.280Z,22.28
2018-08-09T19:58:57.846Z,22.26
2018-08-09T20:02:03.632Z,22.45
2018-08-09T20:05:13.796Z,22.46
2018-08-09T20:08:17.483Z,22.28
2018-08-09T20:11:20.621Z,22.20
2018-08-09T20:14:24.359Z,22.32
2018-08-09T20:17:28.385Z,22.33
2018-08-09T20:20:32.326Z,22.51
2018-08-09T20:23:35.497Z,22.44
2018-08-09T20:26:39.335Z,22.76
2018-08-09T20:29:44.076Z,22.59
2018-08-09T20:32:48.338Z,22.31
2018-08-09T20:35:52.069Z,22.17
2018-08-09T20:38:55.173Z,22.04
2018-08-09T20:41:58.378Z,21.77
2018-08-09T20:45:01.892Z,21.76
2018-08-09T20:48:05.415Z,21.71
2018-08-09T20:51:09.403Z,21.67
2018-08-09T20:54:12.956Z,22.03
2018-08-09T20:57:16.887Z,21.78
2018-08-09T21:00:29.039Z,21.97
2018-08-09T21:03:34.299Z,22.04
2018-08-09T21:06:37.985Z,21.75
2018-08-09T21:09:42.866Z,21.73
2018-08-09T21:12:48.409Z,21.84
2018-08-09T21:15:52.670Z,21.70
2018-08-09T21:18:56.368Z,21.35
2018-08-09T21:21:59.957Z,21.39
2018-08-09T21:25:03.638Z,21.20
2018-08-09T21:28:06.872Z,21.46
2018-08-09T21:31:10.944Z,21.29
2018-08-09T21:34:20.887Z,21.27
2018-08-09T21:37:55.173Z,21.14
2018-08-09T21:40:58.450Z,20.97
2018-08-09T21:44:02.469Z,20.93
2018-08-09T21:47:05.742Z,20.77
2018-08-09T21:50:12.330Z,20.98
2018-08-09T21:53:15.463Z,20.95
2018-08-09T21:56:18.598Z,21.32
2018-08-09T21:59:21.812Z,20.73
2018-08-09T22:02:24.917Z,20.31
2018-08-09T22:05:33.723Z,20.29
2018-08-09T22:08:43.702Z,20.31
2018-08-09T22:11:52.585Z,19.97
2018-08-09T22:15:04.416Z,20.14
2018-08-09T22:18:16.443Z,20.07
2018-08-09T22:21:27.130Z,20.31
2018-08-09T22:24:30.549Z,19.91
2018-08-09T22:27:35.338Z,20.18
2018-08-09T22:30:45.609Z,20.07
2018-08-09T22:33:53.676Z,20.10
2018-08-09T22:36:59.166Z,19.98
2018-08-09T22:40:07.515Z,20.11
2018-08-09T22:46:33.610Z,19.70
2018-08-09T22:49:37.353Z,19.87
2018-08-09T22:52:40.561Z,19.73
2018-08-09T22:55:59.338Z,19.96
2018-08-09T22:59:02.968Z,19.93
2018-08-09T23:02:06.370Z,20.28
2018-08-09T23:05:11.678Z,19.98
2018-08-09T23:08:17.844Z,19.53
2018-08-09T23:11:22.885Z,19.48
2018-08-09T23:14:28.078Z,19.80
2018-08-09T23:17:33.017Z,19.52
2018-08-09T23:20:39.562Z,19.71
2018-08-09T23:23:45.369Z,19.56
2018-08-09T23:26:50.283Z,19.20
2018-08-09T23:29:54.401Z,19.21
2018-08-09T23:32:58.850Z,19.26
2018-08-09T23:36:04.007Z,19.34
2018-08-09T23:39:10.899Z,19.47
2018-08-09T23:42:14.247Z,19.41
2018-08-09T23:45:17.437Z,19.30
2018-08-09T23:48:20.525Z,19.01
2018-08-09T23:51:23.569Z,19.12
2018-08-09T23:54:26.842Z,19.18
2018-08-09T23:57:30.098Z,19.23
